Главная страница
METAR-TAF:

METAR-TAF

Аэропорты :

Пуант-а-Питр, Гваделупа

широта: 16-16N, долгота: 061-31W, высота над уровнем моря: 11 м

Текущие метеонаблюдения

Эта сводка был подготовлена 21 минут назад, в 21:00 UTC
Ветер 12 Узел от восточно-юго-восточный
Температура 28°C
Влажность 62%
Давление 1013 hPa
Видимость 10 км и более
небольшая облачность на высоте 3300 фута

METAR: TFFR 202100Z AUTO 12012KT 9999 FEW033 28/20 Q1013 NOSIG

Время: 17:21 (21:21 UTC)

Прогноз

Эта сводка был подготовлена 4 часа и 21 минут назад, в 17:00 UTC
Прогноз действительный с 20-го 18 UTC до 21-го 18 UTC
Ветер 15 Узел от восточно-юго-восточный
Видимость 10 км и более
Отдельные облака на высоте 3500 фута
Отдельные облака на высоте 5000 фута
изменения
С 21-го 00 UTC до 21-го 02 UTC
Ветер 3 Узел переменных направлений
изменения
С 21-го 12 UTC до 21-го 14 UTC
Ветер 15 Узел от восточный

TAF: TFFR 201700Z 2018/2118 11015KT 9999 SCT035 SCT050 BECMG 2100/2102 VRB03KT BECMG 2112/2114 10015KT

Метеонаблюдения и прогнозы для более 4000 аэропортов (сводки METAR и TAF).

Имеющиеся станции представлены на карте желтыми и красными точками.

Чтобы увидеть название станции, наведите на нее мышь.

Затем щелкните, чтобы увидеть метеонаблюдения и метеопрогнозы.

Управление картой: чтобы увеличить масштаб, щелкните зеленые кнопки с черным крестиком; чтобы уменьшить масштаб, щелкните зеленую кнопку с тире; для просмотра соседних карт щелкайте зеленые стрелки.


METAR-TAF: